Terminal Aerodrome Forecast
Issued by NWS Topeka, KS

Home | Current Version | Previous Version | Graphics & Text | Print | Product List | Glossary On
Versions: 1 2 3 4 5 6 7 8 9 10 11 12 13
000
FTUS43 KTOP 221139
TAFTOP
TAF
KTOP 221139Z 2212/2312 19002KT P6SM FEW250 WS009/22035KT
     FM221500 21011KT P6SM FEW250
     FM230000 30004KT P6SM FEW150=

USA.gov is the U.S. government's official web portal to all federal, state and local government web resources and services.